Time;durP1;ratioP1;P1;durP2;ratioP2;P2;SDS_P1;SDS_P2;PMS_P1;PMS_P2;Temp;Humidity;BMP_temperature;BMP_pressure;BME280_temperature;BME280_humidity;BME280_pressure;Samples;Min_cycle;Max_cycle;Signal;HPM_P1;HPM_P2
2021/11/04 00:01:14;;;;;;;17.75;16.58;;;;;;;7.06;89.00;98571.25;10427748;28;20069;-82
2021/11/04 00:06:15;;;;;;;19.48;17.85;;;;;;;7.21;88.13;98566.31;10399419;28;20053;-81
2021/11/04 00:11:17;;;;;;;19.38;17.98;;;;;;;7.13;88.94;98581.44;10416929;28;20041;-81
2021/11/04 00:16:19;;;;;;;20.70;19.42;;;;;;;6.95;90.27;98575.19;10413953;28;20053;-81
2021/11/04 00:21:20;;;;;;;22.60;21.05;;;;;;;6.88;91.45;98561.56;10414085;28;20081;-81
2021/11/04 00:26:22;;;;;;;20.02;18.83;;;;;;;6.96;91.66;98563.88;10412703;28;20096;-82
2021/11/04 00:31:24;;;;;;;21.02;19.63;;;;;;;7.02;91.96;98556.59;10431083;28;20498;-81
2021/11/04 00:36:26;;;;;;;21.88;20.42;;;;;;;7.07;91.65;98532.91;10412613;28;20049;-83
2021/11/04 00:41:27;;;;;;;20.83;19.48;;;;;;;7.08;91.60;98524.16;10412140;28;20042;-81
2021/11/04 00:46:30;;;;;;;20.20;18.90;;;;;;;7.35;88.83;98522.16;10394220;28;20056;-82
2021/11/04 00:51:32;;;;;;;21.73;19.92;;;;;;;7.52;87.85;98530.09;10427134;28;20049;-82
2021/11/04 00:56:34;;;;;;;20.73;19.33;;;;;;;7.27;88.55;98532.94;10409200;28;20050;-82
2021/11/04 01:01:35;;;;;;;21.13;19.55;;;;;;;7.35;89.12;98530.00;10427251;28;20079;-82
2021/11/04 01:06:37;;;;;;;21.88;20.33;;;;;;;7.15;90.04;98514.31;10441478;28;20072;-81
2021/11/04 01:11:38;;;;;;;20.90;19.60;;;;;;;7.01;90.73;98502.66;10415272;28;20030;-82
2021/11/04 01:16:40;;;;;;;21.17;19.40;;;;;;;7.01;90.91;98487.00;10434120;28;20060;-80
2021/11/04 01:21:42;;;;;;;18.63;17.30;;;;;;;7.05;90.91;98501.63;10440963;28;20045;-80
2021/11/04 01:26:43;;;;;;;20.95;19.40;;;;;;;7.02;90.74;98474.78;10440074;28;20054;-80
2021/11/04 01:31:45;;;;;;;17.70;16.58;;;;;;;6.92;91.60;98463.88;10455120;28;20113;-80
2021/11/04 01:36:47;;;;;;;22.15;20.55;;;;;;;7.19;90.81;98456.63;10455969;28;20049;-81
2021/11/04 01:41:48;;;;;;;21.13;19.73;;;;;;;6.99;90.90;98449.63;10439671;28;20049;-81
2021/11/04 01:46:50;;;;;;;20.55;19.13;;;;;;;6.97;91.43;98442.78;10442133;28;20046;-81
2021/11/04 01:51:53;;;;;;;19.45;18.15;;;;;;;6.90;92.16;98444.78;10452515;28;20072;-82
2021/11/04 01:56:55;;;;;;;21.23;19.83;;;;;;;7.01;91.74;98458.25;10450223;28;20084;-82
2021/11/04 02:02:06;;;;;;;20.60;19.25;;;;;;;6.96;91.91;98464.59;10428132;28;20402;-82
2021/11/04 02:07:19;;;;;;;21.08;19.77;;;;;;;7.05;91.79;98453.75;10422958;28;20071;-81
2021/11/04 02:12:43;;;;;;;19.42;18.23;;;;;;;7.08;91.44;98440.53;10406692;28;20045;-81
2021/11/04 02:17:47;;;;;;;20.30;19.10;;;;;;;7.16;91.13;98430.59;10431469;28;20045;-82
2021/11/04 02:22:57;;;;;;;22.83;21.00;;;;;;;7.24;90.71;98405.00;10473110;28;20081;-81
2021/11/04 02:28:05;;;;;;;23.48;21.80;;;;;;;7.05;91.58;98391.06;10433449;28;20045;-81
2021/11/04 02:33:07;;;;;;;21.77;20.35;;;;;;;7.05;91.75;98386.66;10437204;28;20072;-81
2021/11/04 02:38:11;;;;;;;21.77;20.45;;;;;;;7.00;92.10;98386.03;10423612;28;20057;-81
2021/11/04 02:43:15;;;;;;;22.38;20.58;;;;;;;7.05;92.61;98371.00;10404411;28;20117;-82
2021/11/04 02:48:17;;;;;;;23.42;21.77;;;;;;;7.07;92.18;98374.38;10438156;28;20049;-81
2021/11/04 02:53:22;;;;;;;20.40;19.10;;;;;;;7.09;91.94;98345.59;10436821;28;20053;-82
2021/11/04 02:58:25;;;;;;;24.48;22.88;;;;;;;7.11;92.38;98343.75;10428067;28;20042;-81
2021/11/04 03:03:26;;;;;;;21.27;19.73;;;;;;;7.22;91.96;98341.50;10430035;28;20083;-83
2021/11/04 03:08:28;;;;;;;19.48;18.20;;;;;;;7.46;90.67;98331.69;10421366;28;20045;-80
2021/11/04 03:13:30;;;;;;;19.08;17.67;;;;;;;7.77;89.11;98322.41;10415158;28;20053;-81
2021/11/04 03:18:32;;;;;;;18.02;16.83;;;;;;;7.97;87.74;98322.31;10448976;28;20084;-82
2021/11/04 03:23:34;;;;;;;18.60;17.38;;;;;;;7.79;88.90;98326.66;10448979;28;20068;-82
2021/11/04 03:28:35;;;;;;;19.63;17.92;;;;;;;7.61;89.94;98330.09;10426856;28;20079;-80
2021/11/04 03:33:39;;;;;;;17.45;16.35;;;;;;;7.63;90.75;98330.91;10430235;28;20111;-82
2021/11/04 03:38:42;;;;;;;16.75;15.65;;;;;;;7.70;90.48;98334.06;10430567;28;20458;-82
2021/11/04 03:43:46;;;;;;;17.63;16.30;;;;;;;7.49;91.66;98336.78;10444800;28;20046;-82
2021/11/04 03:48:49;;;;;;;20.45;18.73;;;;;;;7.41;92.68;98327.59;10463284;28;20032;-82
2021/11/04 03:53:51;;;;;;;20.63;18.83;;;;;;;7.53;92.93;98321.81;10490893;28;20049;-82
2021/11/04 03:58:53;;;;;;;19.10;17.80;;;;;;;7.57;91.57;98311.13;10508055;28;20041;-82
2021/11/04 04:03:54;;;;;;;20.08;18.42;;;;;;;7.46;92.46;98305.53;10505525;28;20045;-82
2021/11/04 04:08:58;;;;;;;18.73;17.45;;;;;;;7.39;93.29;98298.03;10488141;28;20041;-83
2021/11/04 04:13:59;;;;;;;21.15;19.52;;;;;;;7.40;93.71;98290.16;10491596;28;20052;-82
2021/11/04 04:19:01;;;;;;;21.25;19.65;;;;;;;7.38;94.03;98265.00;10462716;28;20083;-82
2021/11/04 04:24:03;;;;;;;21.58;19.85;;;;;;;7.35;94.91;98255.53;10458910;28;20041;-82
2021/11/04 04:29:05;;;;;;;20.15;18.75;;;;;;;7.27;96.03;98231.53;10457212;28;20107;-84
2021/11/04 04:34:06;;;;;;;21.30;19.73;;;;;;;7.34;95.93;98225.06;10477959;28;20057;-83
2021/11/04 04:39:08;;;;;;;22.95;20.92;;;;;;;7.40;95.39;98237.88;10463820;28;20051;-82
2021/11/04 04:44:10;;;;;;;24.73;22.52;;;;;;;7.20;96.55;98233.56;10477255;28;20045;-82
2021/11/04 04:49:11;;;;;;;25.58;23.48;;;;;;;7.15;97.73;98219.03;10474640;28;20383;-82
2021/11/04 04:54:13;;;;;;;25.77;23.52;;;;;;;7.07;98.45;98208.94;10469602;28;20053;-82
2021/11/04 04:59:14;;;;;;;24.63;22.40;;;;;;;7.10;99.13;98194.91;10479073;28;20033;-80
2021/11/04 05:04:16;;;;;;;26.05;24.33;;;;;;;7.07;99.36;98190.66;10482075;28;20049;-82
2021/11/04 05:09:18;;;;;;;28.73;26.55;;;;;;;7.08;99.73;98185.38;10488075;28;20041;-81
2021/11/04 05:14:19;;;;;;;25.67;23.95;;;;;;;7.38;98.22;98184.81;10475949;28;20033;-82
2021/11/04 05:19:21;;;;;;;30.60;28.33;;;;;;;7.40;97.73;98175.13;10490398;28;20045;-81
2021/11/04 05:24:23;;;;;;;35.65;32.60;;;;;;;7.16;99.24;98168.47;10511830;22;20061;-80
2021/11/04 05:29:27;;;;;;;35.58;32.85;;;;;;;7.14;99.63;98155.47;10515302;28;20052;-80
2021/11/04 05:34:29;;;;;;;41.17;36.95;;;;;;;7.06;100.00;98161.06;10517958;28;20049;-81
2021/11/04 05:39:31;;;;;;;49.13;43.72;;;;;;;6.99;100.00;98154.44;10512326;28;20058;-80
2021/11/04 05:44:38;;;;;;;39.17;35.72;;;;;;;7.02;100.00;98149.06;10528146;28;20063;-80
2021/11/04 05:49:39;;;;;;;32.95;30.30;;;;;;;6.90;100.00;98154.03;10523624;28;20066;-79
2021/11/04 05:54:41;;;;;;;33.50;30.98;;;;;;;6.95;100.00;98149.41;10497616;28;20044;-79
2021/11/04 05:59:42;;;;;;;32.03;29.52;;;;;;;6.95;100.00;98150.28;10508202;28;20043;-79
2021/11/04 06:04:46;;;;;;;30.48;28.48;;;;;;;6.86;100.00;98140.25;10532909;28;20081;-78
2021/11/04 06:09:47;;;;;;;31.25;28.52;;;;;;;6.75;100.00;98132.94;10530961;28;20041;-79
2021/11/04 06:14:49;;;;;;;32.55;30.02;;;;;;;6.61;100.00;98130.13;10503692;28;20044;-79
2021/11/04 06:19:50;;;;;;;33.55;30.80;;;;;;;6.71;100.00;98125.31;10519672;28;20040;-79
2021/11/04 06:24:52;;;;;;;29.13;27.02;;;;;;;6.66;100.00;98124.69;10518616;28;20098;-79
2021/11/04 06:29:53;;;;;;;28.30;25.90;;;;;;;6.68;100.00;98118.47;10499023;28;20040;-79
2021/11/04 06:34:55;;;;;;;28.67;26.65;;;;;;;6.57;100.00;98118.97;10498490;28;20049;-79
2021/11/04 06:39:56;;;;;;;33.10;30.23;;;;;;;6.62;100.00;98108.31;10517169;28;20037;-79
2021/11/04 06:45:02;;;;;;;24.95;23.00;;;;;;;6.64;100.00;98108.22;10498833;28;20498;-78
2021/11/04 06:50:05;;;;;;;20.15;18.77;;;;;;;6.68;100.00;98117.63;10520332;28;20401;-79
2021/11/04 06:55:07;;;;;;;17.25;16.15;;;;;;;6.41;100.00;98119.72;10526418;28;20044;-78
2021/11/04 07:00:11;;;;;;;16.85;15.43;;;;;;;6.58;100.00;98120.66;10548425;28;20056;-79
2021/11/04 07:05:13;;;;;;;17.98;16.63;;;;;;;6.48;100.00;98123.78;10538774;28;20128;-79
2021/11/04 07:10:18;;;;;;;15.18;14.18;;;;;;;6.53;100.00;98119.19;10524396;28;20063;-79
2021/11/04 07:15:21;;;;;;;14.98;13.98;;;;;;;6.64;99.86;98119.53;10502576;28;20410;-79
2021/11/04 07:20:23;;;;;;;15.32;14.23;;;;;;;6.58;99.79;98123.25;10517865;28;20444;-79
2021/11/04 07:25:27;;;;;;;14.20;13.30;;;;;;;6.49;100.00;98118.47;10518430;28;20048;-79
2021/11/04 07:30:30;;;;;;;12.35;11.45;;;;;;;6.48;100.00;98101.13;10532942;28;20055;-79
2021/11/04 07:35:40;;;;;;;13.23;12.32;;;;;;;6.44;100.00;98085.69;10521394;28;20041;-79
2021/11/04 07:40:46;;;;;;;10.38;9.68;;;;;;;6.44;99.96;98096.94;10519955;28;20059;-79
2021/11/04 07:45:51;;;;;;;10.00;9.30;;;;;;;6.41;100.00;98106.69;10515859;28;20102;-79
2021/11/04 07:50:52;;;;;;;8.38;7.78;;;;;;;6.74;97.83;98114.72;10515672;28;20048;-79
2021/11/04 07:55:58;;;;;;;9.15;8.55;;;;;;;6.85;96.76;98122.06;10513766;28;20041;-78
2021/11/04 08:01:00;;;;;;;10.43;9.73;;;;;;;6.69;97.67;98116.72;10494969;28;20041;-78
2021/11/04 08:06:01;;;;;;;9.07;8.48;;;;;;;6.56;98.43;98111.22;10497349;28;20092;-79
2021/11/04 08:11:03;;;;;;;6.32;5.93;;;;;;;6.80;97.93;98104.00;10514254;28;20074;-78
2021/11/04 08:16:04;;;;;;;4.72;4.43;;;;;;;6.73;98.25;98071.25;10513321;28;20421;-79
2021/11/04 08:21:07;;;;;;;4.95;4.60;;;;;;;6.81;97.10;98040.38;10511991;28;20486;-80
2021/11/04 08:26:08;;;;;;;9.20;8.10;;;;;;;6.42;99.73;98027.47;10493264;28;20059;-80
2021/11/04 08:31:11;;;;;;;7.80;7.30;;;;;;;6.48;100.00;98041.09;10511086;28;20552;-79
2021/11/04 08:36:12;;;;;;;5.70;5.28;;;;;;;6.66;98.43;98039.38;10513518;28;20076;-79
2021/11/04 08:41:14;;;;;;;4.22;3.85;;;;;;;6.82;97.50;98039.50;10515287;28;20059;-79
2021/11/04 08:46:15;;;;;;;3.38;3.17;;;;;;;6.95;96.10;98035.38;10512116;28;20049;-81
2021/11/04 08:51:17;;;;;;;2.75;2.55;;;;;;;7.01;95.13;98032.44;10511901;28;20048;-80
2021/11/04 08:56:19;;;;;;;2.75;2.55;;;;;;;6.93;95.21;98034.56;10490108;28;20049;-80
2021/11/04 09:01:20;;;;;;;3.70;3.40;;;;;;;6.75;96.86;98022.41;10494334;28;20094;-80
2021/11/04 09:06:22;;;;;;;3.53;3.28;;;;;;;6.89;96.13;98009.53;10477517;28;20105;-81
2021/11/04 09:11:24;;;;;;;2.85;2.65;;;;;;;6.94;95.60;98012.75;10514206;28;20036;-82
2021/11/04 09:16:44;;;;;;;2.72;2.53;;;;;;;6.79;95.19;98029.19;10511343;28;20055;-80
2021/11/04 09:21:45;;;;;;;3.25;2.95;;;;;;;6.93;94.51;98041.56;10492711;28;20044;-81
2021/11/04 09:26:47;;;;;;;2.25;2.05;;;;;;;6.81;95.79;98048.22;10493074;28;20052;-82
2021/11/04 09:31:49;;;;;;;2.20;2.00;;;;;;;6.68;95.70;98054.94;10493518;28;20479;-81
2021/11/04 09:36:51;;;;;;;2.53;2.10;;;;;;;6.80;94.64;98067.44;10481907;22;20111;-77
2021/11/04 09:41:53;;;;;;;2.28;2.08;;;;;;;6.73;95.38;98072.13;10429762;28;20041;-76
2021/11/04 09:46:54;;;;;;;1.92;1.83;;;;;;;6.75;95.28;98066.81;10410133;28;20541;-79
2021/11/04 09:51:56;;;;;;;1.80;1.70;;;;;;;6.79;95.23;98077.03;10411206;28;20079;-78
2021/11/04 09:56:58;;;;;;;2.20;2.00;;;;;;;6.94;94.54;98072.00;10408297;28;20075;-77
2021/11/04 10:02:00;;;;;;;1.70;1.60;;;;;;;6.74;95.29;98072.97;10427197;28;20034;-77
2021/11/04 10:07:01;;;;;;;2.55;1.85;;;;;;;6.77;95.47;98070.19;10429358;28;20515;-77
2021/11/04 10:12:14;;;;;;;2.10;1.27;;;;;;;6.73;95.16;98071.25;10410086;28;20045;-78
2021/11/04 10:17:27;;;;;;;1.13;1.00;;;;;;;6.81;94.27;98067.34;10393636;28;20067;-77
2021/11/04 10:22:28;;;;;;;1.50;1.40;;;;;;;6.82;95.20;98076.91;10427577;28;20120;-77
2021/11/04 10:27:32;;;;;;;1.77;1.48;;;;;;;6.76;96.13;98060.66;10431966;28;20064;-77
2021/11/04 10:32:36;;;;;;;1.05;1.00;;;;;;;6.91;95.20;98069.53;10409796;28;20057;-78
2021/11/04 10:37:44;;;;;;;1.35;1.13;;;;;;;6.85;94.95;98081.09;10424658;28;20041;-79
2021/11/04 10:42:53;;;;;;;1.10;1.00;;;;;;;6.94;94.38;98083.28;10425953;28;20046;-76
2021/11/04 10:48:13;;;;;;;0.90;0.70;;;;;;;6.89;95.45;98087.88;10429532;28;20046;-78
2021/11/04 10:53:22;;;;;;;1.50;0.88;;;;;;;6.77;95.98;98088.47;10435966;28;20076;-78
2021/11/04 10:58:29;;;;;;;1.10;0.90;;;;;;;6.85;95.08;98096.78;10437214;28;20053;-77
2021/11/04 11:03:31;;;;;;;1.70;0.90;;;;;;;6.96;95.97;98091.06;10425757;28;20138;-79
2021/11/04 11:08:33;;;;;;;0.73;0.68;;;;;;;6.97;93.95;98090.13;10436183;28;20499;-77
2021/11/04 11:13:34;;;;;;;0.52;0.52;;;;;;;6.92;93.25;98097.34;10431637;28;20473;-77
2021/11/04 11:18:37;;;;;;;1.30;0.70;;;;;;;6.88;94.61;98109.69;10425091;28;20049;-77
2021/11/04 11:23:38;;;;;;;0.75;0.45;;;;;;;6.92;93.56;98115.63;10409400;28;20046;-77
2021/11/04 11:28:41;;;;;;;1.00;0.65;;;;;;;6.86;94.07;98121.97;10499394;22;20040;-67
2021/11/04 11:33:47;;;;;;;0.73;0.52;;;;;;;6.79;93.18;98123.19;10504482;28;20037;-66
2021/11/04 11:38:59;;;;;;;0.52;0.50;;;;;;;6.74;91.26;98138.22;10486593;28;20127;-67
2021/11/04 11:44:04;;;;;;;0.57;0.40;;;;;;;6.73;90.27;98147.84;10504454;28;20036;-67
2021/11/04 11:49:12;;;;;;;0.68;0.55;;;;;;;6.61;90.67;98155.38;10503648;28;20075;-67
2021/11/04 11:54:14;;;;;;;0.50;0.50;;;;;;;6.57;90.36;98180.78;10504648;28;20184;-67
2021/11/04 11:59:19;;;;;;;1.27;0.55;;;;;;;6.54;89.75;98183.50;10485149;28;20045;-67
2021/11/04 12:04:27;;;;;;;0.50;0.50;;;;;;;6.51;91.06;98194.97;10502132;28;20047;-67
2021/11/04 12:09:43;;;;;;;;;;;;;;;6.49;89.40;98194.16;10504247;28;20452;-67
2021/11/04 12:14:58;;;;;;;0.82;0.82;;;;;;;6.35;90.47;98206.97;10502970;28;19921;-67
2021/11/04 12:20:01;;;;;;;1.08;0.73;;;;;;;6.31;90.10;98215.84;10502448;28;20393;-67
2021/11/04 12:25:13;;;;;;;1.10;0.80;;;;;;;6.20;89.26;98231.97;10501168;28;20390;-67
2021/11/04 12:30:27;;;;;;;1.05;0.90;;;;;;;6.14;90.51;98254.84;10500957;28;20048;-68
2021/11/04 12:35:47;;;;;;;0.90;0.70;;;;;;;6.09;89.48;98265.50;10500761;28;20131;-66
2021/11/04 12:41:08;;;;;;;0.77;0.60;;;;;;;6.05;89.40;98284.78;10501056;28;20082;-68
2021/11/04 12:46:14;;;;;;;0.50;0.50;;;;;;;6.08;88.30;98292.50;10500143;28;20047;-67
2021/11/04 12:51:17;;;;;;;0.40;0.30;;;;;;;6.06;87.66;98308.22;10499655;28;20071;-67
2021/11/04 12:56:20;;;;;;;0.55;0.30;;;;;;;6.01;88.24;98320.56;10501486;28;20071;-66
2021/11/04 13:01:22;;;;;;;1.33;0.50;;;;;;;5.99;87.99;98316.34;10500666;28;20047;-66
2021/11/04 13:06:24;;;;;;;0.73;0.45;;;;;;;6.01;88.08;98314.50;10499022;28;20052;-67
2021/11/04 13:11:26;;;;;;;0.50;0.30;;;;;;;6.10;88.17;98319.34;10498786;28;20068;-67
2021/11/04 13:16:27;;;;;;;0.60;0.30;;;;;;;6.17;89.01;98331.25;10499193;28;20426;-67
2021/11/04 13:21:33;;;;;;;0.50;0.47;;;;;;;6.18;89.75;98334.69;10498172;28;20040;-66
2021/11/04 13:26:34;;;;;;;0.52;0.40;;;;;;;6.29;89.59;98345.56;10499677;28;20045;-66
2021/11/04 13:31:36;;;;;;;0.40;0.38;;;;;;;6.25;88.18;98346.59;10479435;28;20090;-66
2021/11/04 13:36:38;;;;;;;0.20;0.20;;;;;;;6.27;86.01;98349.97;10481931;28;20563;-66
2021/11/04 13:41:50;;;;;;;0.90;0.20;;;;;;;6.24;85.91;98350.09;10501815;28;20045;-66
2021/11/04 13:46:52;;;;;;;0.47;0.30;;;;;;;6.27;84.93;98357.78;10499823;28;20097;-67
2021/11/04 13:51:57;;;;;;;0.22;0.20;;;;;;;6.28;84.48;98362.94;10499825;28;20036;-67
2021/11/04 13:57:09;;;;;;;0.20;0.20;;;;;;;6.22;84.64;98365.81;10497844;28;20056;-66
2021/11/04 14:02:14;;;;;;;0.32;0.20;;;;;;;6.17;84.81;98383.41;10497941;28;20087;-66
2021/11/04 14:07:26;;;;;;;0.45;0.30;;;;;;;6.26;85.67;98390.88;10500184;28;20102;-67
2021/11/04 14:12:31;;;;;;;0.17;0.17;;;;;;;6.28;84.59;98391.66;10499001;28;20045;-66
2021/11/04 14:17:43;;;;;;;0.40;0.25;;;;;;;6.36;82.79;98406.16;10497935;28;20067;-67
2021/11/04 14:22:45;;;;;;;0.73;0.30;;;;;;;6.33;83.68;98414.97;10482863;28;20158;-67
2021/11/04 14:28:04;;;;;;;0.57;0.20;;;;;;;6.34;82.05;98434.94;10505191;28;20559;-68
2021/11/04 14:33:06;;;;;;;0.30;0.30;;;;;;;6.24;83.96;98444.91;10505489;28;20040;-68
2021/11/04 14:38:10;;;;;;;0.10;0.10;;;;;;;6.09;81.62;98462.91;10505057;28;20040;-68
2021/11/04 14:43:11;;;;;;;0.10;0.10;;;;;;;5.82;82.37;98468.22;10505576;28;20048;-67
2021/11/04 14:48:13;;;;;;;0.10;0.10;;;;;;;5.78;82.65;98475.31;10504687;28;20055;-68
2021/11/04 14:53:16;;;;;;;0.13;0.10;;;;;;;5.75;83.78;98478.00;10503854;28;20047;-68
2021/11/04 14:58:17;;;;;;;0.30;0.30;;;;;;;5.80;83.44;98485.69;10503324;28;20375;-66
2021/11/04 15:03:19;;;;;;;0.32;0.20;;;;;;;5.83;84.17;98491.63;10503208;28;20052;-68
2021/11/04 15:08:22;;;;;;;0.85;0.25;;;;;;;5.88;84.50;98494.06;10503734;28;20405;-68
2021/11/04 15:13:25;;;;;;;0.30;0.30;;;;;;;5.92;85.89;98495.69;10503245;28;20485;-69
2021/11/04 15:18:37;;;;;;;0.68;0.43;;;;;;;6.02;85.88;98506.59;10502577;28;20464;-68
2021/11/04 15:23:39;;;;;;;0.40;0.40;;;;;;;6.14;86.38;98515.75;10501501;28;20052;-68
2021/11/04 15:28:42;;;;;;;0.40;0.40;;;;;;;6.23;86.26;98516.22;10501410;28;20078;-69
2021/11/04 15:33:44;;;;;;;0.20;0.20;;;;;;;6.30;85.70;98525.53;10501392;28;20561;-68
2021/11/04 15:38:45;;;;;;;0.50;0.38;;;;;;;6.36;87.29;98537.50;10484184;28;20040;-68
2021/11/04 15:43:47;;;;;;;0.47;0.32;;;;;;;6.29;88.06;98562.13;10483043;28;20127;-67
2021/11/04 15:48:49;;;;;;;0.50;0.30;;;;;;;6.27;86.22;98556.97;10499379;28;20048;-68
2021/11/04 15:53:51;;;;;;;0.38;0.30;;;;;;;6.34;84.77;98573.25;10500339;28;20119;-69
2021/11/04 15:58:52;;;;;;;0.20;0.20;;;;;;;6.20;86.28;98573.78;10500184;28;20044;-68
2021/11/04 16:03:54;;;;;;;0.50;0.50;;;;;;;6.30;84.59;98582.94;10481989;28;20044;-68
2021/11/04 16:08:56;;;;;;;0.20;0.20;;;;;;;6.31;83.32;98602.91;10499590;28;20048;-67
2021/11/04 16:13:58;;;;;;;0.40;0.40;;;;;;;6.22;85.12;98608.47;10499619;28;20045;-68
2021/11/04 16:19:00;;;;;;;0.20;0.20;;;;;;;6.21;84.52;98612.00;10500442;28;20060;-66
2021/11/04 16:24:05;;;;;;;0.30;0.10;;;;;;;6.19;83.10;98629.44;10499332;28;20052;-67
2021/11/04 16:29:08;;;;;;;0.17;0.13;;;;;;;6.14;83.23;98636.59;10500250;28;20135;-67
2021/11/04 16:34:10;;;;;;;0.20;0.20;;;;;;;6.13;83.57;98647.09;10499024;28;20490;-66
2021/11/04 16:39:12;;;;;;;0.28;0.22;;;;;;;6.11;83.74;98655.00;10498746;28;20391;-67
2021/11/04 16:44:14;;;;;;;1.67;0.20;;;;;;;6.06;84.49;98664.72;10500282;28;20068;-66
2021/11/04 16:49:16;;;;;;;0.20;0.20;;;;;;;6.09;85.16;98684.63;10480180;28;20052;-67
2021/11/04 16:54:21;;;;;;;0.30;0.30;;;;;;;6.12;84.98;98679.31;10498440;28;20067;-67
2021/11/04 16:59:23;;;;;;;0.20;0.20;;;;;;;6.13;85.18;98694.06;10499140;28;20459;-67
2021/11/04 17:04:25;;;;;;;0.20;0.20;;;;;;;6.08;85.81;98702.03;10480305;28;20079;-67
2021/11/04 17:09:27;;;;;;;0.20;0.20;;;;;;;6.11;85.96;98712.38;10498306;28;20095;-67
2021/11/04 17:14:29;;;;;;;2.92;0.30;;;;;;;6.20;85.71;98725.09;10498236;28;20040;-66
2021/11/04 17:19:31;;;;;;;0.47;0.35;;;;;;;6.15;86.88;98750.47;10498393;28;20045;-67
2021/11/04 17:24:33;;;;;;;0.63;0.30;;;;;;;6.21;86.87;98757.25;10497602;28;20482;-68
2021/11/04 17:29:34;;;;;;;0.52;0.50;;;;;;;6.21;88.67;98778.16;10445705;22;20041;-70
2021/11/04 17:34:37;;;;;;;0.70;0.35;;;;;;;6.30;86.60;98802.16;10420574;28;20038;-70
2021/11/04 17:39:39;;;;;;;0.45;0.45;;;;;;;6.20;87.93;98808.59;10420700;28;20104;-71
2021/11/04 17:44:40;;;;;;;1.10;0.47;;;;;;;6.25;88.23;98827.56;10403180;28;20033;-71
2021/11/04 17:49:42;;;;;;;0.32;0.32;;;;;;;6.25;87.37;98829.31;10422012;28;20487;-73
2021/11/04 17:54:44;;;;;;;0.40;0.38;;;;;;;6.26;87.55;98831.03;10419589;28;20042;-72
2021/11/04 17:59:46;;;;;;;0.90;0.57;;;;;;;6.17;89.56;98850.44;10408693;28;20411;-72
2021/11/04 18:04:48;;;;;;;0.43;0.30;;;;;;;6.26;87.57;98862.34;10427340;28;20068;-72
2021/11/04 18:09:49;;;;;;;0.22;0.22;;;;;;;6.29;86.87;98888.34;10426088;28;20037;-71
2021/11/04 18:14:54;;;;;;;0.30;0.30;;;;;;;6.39;86.74;98888.88;10407668;28;20111;-71
2021/11/04 18:19:57;;;;;;;0.60;0.60;;;;;;;6.32;88.01;98911.72;10425614;28;20041;-71
2021/11/04 18:25:00;;;;;;;0.40;0.40;;;;;;;6.29;88.78;98912.69;10428348;28;20092;-71
2021/11/04 18:30:05;;;;;;;0.30;0.30;;;;;;;6.39;88.67;98931.50;10425348;28;20099;-70
2021/11/04 18:35:07;;;;;;;0.40;0.40;;;;;;;6.29;90.07;98930.94;10407317;28;20049;-71
2021/11/04 18:40:09;;;;;;;0.50;0.50;;;;;;;6.35;89.91;98947.31;10425243;28;20495;-71
2021/11/04 18:45:10;;;;;;;0.70;0.43;;;;;;;6.38;90.09;98950.69;10409599;28;20045;-71
2021/11/04 18:50:12;;;;;;;0.55;0.55;;;;;;;6.38;89.75;98960.28;10424215;28;20083;-71
2021/11/04 18:55:15;;;;;;;0.30;0.30;;;;;;;6.45;89.19;98969.59;10424831;28;20121;-72
2021/11/04 19:00:19;;;;;;;0.57;0.50;;;;;;;6.40;89.67;98985.41;10424877;28;20053;-71
2021/11/04 19:05:21;;;;;;;1.25;0.47;;;;;;;6.57;89.12;98995.31;10423647;28;20052;-71
2021/11/04 19:10:23;;;;;;;0.50;0.50;;;;;;;6.54;90.42;99000.63;10423997;28;20080;-71
2021/11/04 19:15:27;;;;;;;0.65;0.60;;;;;;;6.57;90.86;99013.59;10406315;28;20124;-70
2021/11/04 19:20:29;;;;;;;0.80;0.80;;;;;;;6.54;91.45;99008.47;10423035;28;20042;-71
2021/11/04 19:25:31;;;;;;;1.20;1.10;;;;;;;6.61;90.49;99015.22;10405103;28;20052;-71
2021/11/04 19:30:36;;;;;;;0.90;0.90;;;;;;;6.65;89.52;99039.47;10423856;28;20041;-72
2021/11/04 19:35:42;;;;;;;2.85;1.20;;;;;;;6.66;89.85;99060.31;10404797;28;20057;-71
2021/11/04 19:40:44;;;;;;;1.08;1.00;;;;;;;6.73;89.08;99045.28;10422817;28;20042;-72
2021/11/04 19:45:46;;;;;;;1.80;0.90;;;;;;;6.67;88.24;99074.22;10404476;28;20042;-72
2021/11/04 19:50:48;;;;;;;0.80;0.80;;;;;;;6.73;87.26;99085.34;10422392;28;20053;-72
2021/11/04 19:55:49;;;;;;;0.88;0.88;;;;;;;6.68;87.54;99084.59;10403871;28;20042;-71
2021/11/04 20:00:51;;;;;;;1.63;1.20;;;;;;;6.67;88.13;99105.56;10423601;28;20116;-71
2021/11/04 20:05:53;;;;;;;1.35;1.25;;;;;;;6.71;87.38;99120.22;10424383;28;20491;-73
2021/11/04 20:10:55;;;;;;;1.40;1.30;;;;;;;6.64;88.42;99129.13;10423728;28;20045;-73
2021/11/04 20:15:56;;;;;;;1.50;1.40;;;;;;;6.80;87.76;99146.06;10421999;28;20044;-72
2021/11/04 20:20:58;;;;;;;1.50;1.40;;;;;;;6.83;87.12;99149.44;10421310;28;20461;-71
2021/11/04 20:26:00;;;;;;;2.00;1.80;;;;;;;6.90;86.64;99162.31;10420994;28;20042;-72
2021/11/04 20:31:02;;;;;;;2.47;2.28;;;;;;;6.80;88.08;99174.78;10422246;28;20126;-71
2021/11/04 20:36:05;;;;;;;2.90;2.70;;;;;;;6.90;86.86;99184.06;10403111;28;20136;-71
2021/11/04 20:41:07;;;;;;;2.88;2.67;;;;;;;6.91;86.74;99198.84;10422357;28;20395;-71
2021/11/04 20:46:09;;;;;;;2.88;2.67;;;;;;;6.98;86.39;99207.34;10420391;28;20112;-71
2021/11/04 20:51:12;;;;;;;2.58;2.38;;;;;;;6.94;86.61;99211.81;10402480;28;20046;-71
2021/11/04 20:56:15;;;;;;;3.33;3.10;;;;;;;7.03;85.81;99214.13;10421583;28;20124;-72
2021/11/04 21:01:17;;;;;;;3.25;3.00;;;;;;;7.07;85.48;99220.13;10403301;28;20053;-71
2021/11/04 21:06:19;;;;;;;3.20;2.90;;;;;;;7.14;84.17;99226.03;10401578;28;20057;-71
2021/11/04 21:11:22;;;;;;;3.70;3.08;;;;;;;7.13;84.59;99232.16;10402227;28;20076;-73
2021/11/04 21:16:23;;;;;;;4.28;3.97;;;;;;;7.03;85.04;99239.41;10420175;28;20105;-70
2021/11/04 21:21:26;;;;;;;3.42;3.20;;;;;;;7.03;84.58;99248.09;10418778;28;20041;-70
2021/11/04 21:26:29;;;;;;;3.72;2.90;;;;;;;6.99;84.85;99250.84;10400617;28;20049;-71
2021/11/04 21:31:32;;;;;;;3.00;2.80;;;;;;;7.17;82.68;99257.28;10420264;28;20046;-70
2021/11/04 21:36:34;;;;;;;3.00;2.80;;;;;;;7.11;83.29;99274.00;10410110;28;20073;-70
2021/11/04 21:41:36;;;;;;;2.70;2.50;;;;;;;7.22;82.62;99271.09;10428159;28;20061;-71
2021/11/04 21:46:38;;;;;;;2.15;2.00;;;;;;;7.22;82.50;99277.19;10409113;28;20147;-71
2021/11/04 21:51:40;;;;;;;2.63;2.42;;;;;;;7.16;82.27;99287.78;10406852;28;20461;-69
2021/11/04 21:56:41;;;;;;;2.55;2.35;;;;;;;7.15;81.85;99280.88;10424632;28;20044;-70
2021/11/04 22:01:43;;;;;;;2.58;2.38;;;;;;;7.24;81.63;99295.41;10425020;28;20037;-70
2021/11/04 22:06:46;;;;;;;3.00;2.70;;;;;;;7.18;81.83;99287.78;10427022;28;20487;-70
2021/11/04 22:11:48;;;;;;;3.17;2.90;;;;;;;7.22;81.82;99311.16;10425406;28;20045;-71
2021/11/04 22:16:49;;;;;;;3.45;2.80;;;;;;;7.34;80.64;99313.38;10426805;28;20080;-72
2021/11/04 22:21:51;;;;;;;3.33;3.13;;;;;;;7.37;81.26;99325.53;10424496;28;20053;-71
2021/11/04 22:26:54;;;;;;;2.97;2.78;;;;;;;7.33;81.33;99348.28;10399879;28;20077;-71
2021/11/04 22:31:58;;;;;;;4.18;3.83;;;;;;;7.30;81.68;99358.84;10423775;28;20095;-71
2021/11/04 22:37:00;;;;;;;3.58;3.30;;;;;;;7.28;81.94;99354.56;10405832;28;20049;-72
2021/11/04 22:42:02;;;;;;;3.60;3.35;;;;;;;7.15;82.27;99356.66;10405803;28;20517;-71
2021/11/04 22:47:04;;;;;;;3.95;3.30;;;;;;;7.27;81.49;99363.31;10405693;28;20053;-70
2021/11/04 22:52:06;;;;;;;4.43;4.03;;;;;;;7.12;82.20;99385.50;10405577;28;20103;-70
2021/11/04 22:57:08;;;;;;;4.57;4.18;;;;;;;7.22;81.33;99391.34;10422323;28;20550;-71
2021/11/04 23:02:13;;;;;;;5.72;5.30;;;;;;;7.21;81.11;99402.66;10422999;28;20053;-71
2021/11/04 23:07:15;;;;;;;5.63;5.05;;;;;;;7.27;80.96;99402.53;10423225;28;20057;-71
2021/11/04 23:12:17;;;;;;;5.10;4.80;;;;;;;7.17;81.39;99420.22;10406250;28;20111;-71
2021/11/04 23:17:19;;;;;;;5.88;5.47;;;;;;;7.15;81.58;99429.00;10388535;28;20059;-71
2021/11/04 23:22:21;;;;;;;5.32;4.93;;;;;;;7.19;80.88;99433.25;10422047;28;20522;-71
2021/11/04 23:27:22;;;;;;;5.50;4.72;;;;;;;7.19;80.60;99441.94;10420912;22;20135;-71
2021/11/04 23:32:25;;;;;;;5.55;4.03;;;;;;;7.27;80.44;99444.34;10501821;28;20052;-69